Terminal Aerodrome Forecast
Issued by NWS

Home | Current Version | Previous Version | Text Only | Print | Product List | Glossary On
Versions: 1 2 3 4 5 6 7 8 9 10 11 12
000
FTUS43 KMQT 232324
TAFIWD
TAF
KIWD 232324Z 2400/2424 33009KT P6SM VCSH OVC040
     FM240200 33012G21KT P6SM VCSH OVC025
     FM240300 33013G24KT P6SM VCSH OVC015
     FM240600 35015G28KT 6SM -SHRA OVC010
     FM241900 33020G35KT 3SM -SHRASN OVC015
     FM242100 33020G32KT 5SM -SHRASN BKN025
     FM242200 33018G31KT P6SM BKN035=

USA.gov is the U.S. government's official web portal to all federal, state and local government web resources and services.